sensor_id;sensor_type;location;lat;lon;timestamp;P1;durP1;ratioP1;P2;durP2;ratioP2
20230;SDS011;10274;49.022;9.338;2023-08-21T00:01:24;7.10;;;5.00;;
20230;SDS011;10274;49.022;9.338;2023-08-21T00:03:50;5.60;;;5.10;;
20230;SDS011;10274;49.022;9.338;2023-08-21T00:06:17;8.23;;;5.07;;
20230;SDS011;10274;49.022;9.338;2023-08-21T00:08:44;6.80;;;5.37;;
20230;SDS011;10274;49.022;9.338;2023-08-21T00:11:11;5.67;;;5.17;;
20230;SDS011;10274;49.022;9.338;2023-08-21T00:13:38;5.87;;;5.30;;
20230;SDS011;10274;49.022;9.338;2023-08-21T00:16:06;6.00;;;5.40;;
20230;SDS011;10274;49.022;9.338;2023-08-21T00:18:33;7.00;;;5.27;;
20230;SDS011;10274;49.022;9.338;2023-08-21T00:20:59;5.43;;;4.93;;
20230;SDS011;10274;49.022;9.338;2023-08-21T00:23:26;5.93;;;5.30;;
20230;SDS011;10274;49.022;9.338;2023-08-21T00:25:53;6.83;;;5.03;;
20230;SDS011;10274;49.022;9.338;2023-08-21T00:28:19;5.97;;;5.37;;
20230;SDS011;10274;49.022;9.338;2023-08-21T00:30:46;7.07;;;5.40;;
20230;SDS011;10274;49.022;9.338;2023-08-21T00:33:14;7.53;;;5.53;;
20230;SDS011;10274;49.022;9.338;2023-08-21T00:35:41;6.17;;;4.80;;
20230;SDS011;10274;49.022;9.338;2023-08-21T00:38:08;7.33;;;5.40;;
20230;SDS011;10274;49.022;9.338;2023-08-21T00:40:35;7.20;;;5.13;;
20230;SDS011;10274;49.022;9.338;2023-08-21T00:43:01;5.30;;;4.80;;
20230;SDS011;10274;49.022;9.338;2023-08-21T00:45:29;6.37;;;4.43;;
20230;SDS011;10274;49.022;9.338;2023-08-21T00:47:56;5.80;;;4.60;;
20230;SDS011;10274;49.022;9.338;2023-08-21T00:50:24;5.40;;;4.90;;
20230;SDS011;10274;49.022;9.338;2023-08-21T00:52:51;5.57;;;4.90;;
20230;SDS011;10274;49.022;9.338;2023-08-21T00:55:18;5.77;;;4.87;;
20230;SDS011;10274;49.022;9.338;2023-08-21T00:57:45;6.30;;;5.70;;
20230;SDS011;10274;49.022;9.338;2023-08-21T01:00:12;5.30;;;4.80;;
20230;SDS011;10274;49.022;9.338;2023-08-21T01:02:39;5.77;;;5.03;;
20230;SDS011;10274;49.022;9.338;2023-08-21T01:05:07;5.97;;;5.37;;
20230;SDS011;10274;49.022;9.338;2023-08-21T01:07:36;6.47;;;4.70;;
20230;SDS011;10274;49.022;9.338;2023-08-21T01:10:11;7.37;;;5.50;;
20230;SDS011;10274;49.022;9.338;2023-08-21T01:12:44;6.83;;;5.10;;
20230;SDS011;10274;49.022;9.338;2023-08-21T01:15:17;7.23;;;5.23;;
20230;SDS011;10274;49.022;9.338;2023-08-21T01:17:44;5.53;;;5.03;;
20230;SDS011;10274;49.022;9.338;2023-08-21T01:20:13;7.63;;;5.10;;
20230;SDS011;10274;49.022;9.338;2023-08-21T01:22:43;5.67;;;4.90;;
20230;SDS011;10274;49.022;9.338;2023-08-21T01:25:12;5.77;;;5.17;;
20230;SDS011;10274;49.022;9.338;2023-08-21T01:27:49;6.33;;;4.97;;
20230;SDS011;10274;49.022;9.338;2023-08-21T01:30:16;5.23;;;4.73;;
20230;SDS011;10274;49.022;9.338;2023-08-21T01:32:45;5.37;;;4.87;;
20230;SDS011;10274;49.022;9.338;2023-08-21T01:35:18;6.07;;;4.70;;
20230;SDS011;10274;49.022;9.338;2023-08-21T01:37:46;5.80;;;5.20;;
20230;SDS011;10274;49.022;9.338;2023-08-21T01:40:20;5.90;;;5.13;;
20230;SDS011;10274;49.022;9.338;2023-08-21T01:42:47;5.83;;;5.00;;
20230;SDS011;10274;49.022;9.338;2023-08-21T01:45:14;5.60;;;5.10;;
20230;SDS011;10274;49.022;9.338;2023-08-21T01:47:41;7.13;;;5.30;;
20230;SDS011;10274;49.022;9.338;2023-08-21T01:50:08;6.50;;;5.20;;
20230;SDS011;10274;49.022;9.338;2023-08-21T01:52:35;5.57;;;5.07;;
20230;SDS011;10274;49.022;9.338;2023-08-21T01:55:02;6.60;;;4.80;;
20230;SDS011;10274;49.022;9.338;2023-08-21T01:57:31;6.50;;;5.50;;
20230;SDS011;10274;49.022;9.338;2023-08-21T01:59:57;7.07;;;5.30;;
20230;SDS011;10274;49.022;9.338;2023-08-21T02:02:24;5.60;;;5.10;;
20230;SDS011;10274;49.022;9.338;2023-08-21T02:04:51;5.33;;;4.90;;
20230;SDS011;10274;49.022;9.338;2023-08-21T02:07:17;6.33;;;5.73;;
20230;SDS011;10274;49.022;9.338;2023-08-21T02:09:44;6.60;;;5.33;;
20230;SDS011;10274;49.022;9.338;2023-08-21T02:12:11;5.97;;;5.47;;
20230;SDS011;10274;49.022;9.338;2023-08-21T02:14:39;5.90;;;5.10;;
20230;SDS011;10274;49.022;9.338;2023-08-21T02:17:06;5.50;;;5.00;;
20230;SDS011;10274;49.022;9.338;2023-08-21T02:19:32;6.57;;;5.30;;
20230;SDS011;10274;49.022;9.338;2023-08-21T02:21:59;5.77;;;5.20;;
20230;SDS011;10274;49.022;9.338;2023-08-21T02:24:26;6.70;;;6.10;;
20230;SDS011;10274;49.022;9.338;2023-08-21T02:26:52;6.03;;;5.43;;
20230;SDS011;10274;49.022;9.338;2023-08-21T02:29:20;5.00;;;4.60;;
20230;SDS011;10274;49.022;9.338;2023-08-21T02:31:48;5.90;;;5.30;;
20230;SDS011;10274;49.022;9.338;2023-08-21T02:34:14;6.43;;;5.70;;
20230;SDS011;10274;49.022;9.338;2023-08-21T02:36:41;5.90;;;5.40;;
20230;SDS011;10274;49.022;9.338;2023-08-21T02:39:08;7.77;;;5.80;;
20230;SDS011;10274;49.022;9.338;2023-08-21T02:41:34;6.77;;;5.53;;
20230;SDS011;10274;49.022;9.338;2023-08-21T02:44:01;6.77;;;5.47;;
20230;SDS011;10274;49.022;9.338;2023-08-21T02:46:28;6.33;;;5.73;;
20230;SDS011;10274;49.022;9.338;2023-08-21T02:48:56;5.80;;;5.23;;
20230;SDS011;10274;49.022;9.338;2023-08-21T02:51:23;6.83;;;5.20;;
20230;SDS011;10274;49.022;9.338;2023-08-21T02:53:49;7.77;;;5.43;;
20230;SDS011;10274;49.022;9.338;2023-08-21T02:56:16;5.80;;;5.20;;
20230;SDS011;10274;49.022;9.338;2023-08-21T02:58:43;6.70;;;5.40;;
20230;SDS011;10274;49.022;9.338;2023-08-21T03:01:09;6.37;;;4.93;;
20230;SDS011;10274;49.022;9.338;2023-08-21T03:03:36;6.10;;;5.50;;
20230;SDS011;10274;49.022;9.338;2023-08-21T03:06:05;7.83;;;5.83;;
20230;SDS011;10274;49.022;9.338;2023-08-21T03:08:31;8.33;;;5.30;;
20230;SDS011;10274;49.022;9.338;2023-08-21T03:10:58;7.67;;;5.57;;
20230;SDS011;10274;49.022;9.338;2023-08-21T03:13:25;6.27;;;5.67;;
20230;SDS011;10274;49.022;9.338;2023-08-21T03:15:52;6.97;;;6.00;;
20230;SDS011;10274;49.022;9.338;2023-08-21T03:18:18;6.87;;;5.67;;
20230;SDS011;10274;49.022;9.338;2023-08-21T03:20:45;6.80;;;6.07;;
20230;SDS011;10274;49.022;9.338;2023-08-21T03:23:13;7.13;;;5.43;;
20230;SDS011;10274;49.022;9.338;2023-08-21T03:25:40;6.57;;;5.97;;
20230;SDS011;10274;49.022;9.338;2023-08-21T03:28:07;7.57;;;5.50;;
20230;SDS011;10274;49.022;9.338;2023-08-21T03:30:33;6.13;;;5.60;;
20230;SDS011;10274;49.022;9.338;2023-08-21T03:33:00;6.67;;;5.50;;
20230;SDS011;10274;49.022;9.338;2023-08-21T03:35:27;6.10;;;5.50;;
20230;SDS011;10274;49.022;9.338;2023-08-21T03:37:54;8.33;;;5.73;;
20230;SDS011;10274;49.022;9.338;2023-08-21T03:40:22;6.57;;;5.97;;
20230;SDS011;10274;49.022;9.338;2023-08-21T03:42:48;6.30;;;5.70;;
20230;SDS011;10274;49.022;9.338;2023-08-21T03:45:15;6.03;;;5.47;;
20230;SDS011;10274;49.022;9.338;2023-08-21T03:47:42;7.73;;;6.30;;
20230;SDS011;10274;49.022;9.338;2023-08-21T03:50:09;6.70;;;6.10;;
20230;SDS011;10274;49.022;9.338;2023-08-21T03:52:36;6.23;;;5.63;;
20230;SDS011;10274;49.022;9.338;2023-08-21T03:55:02;7.10;;;6.40;;
20230;SDS011;10274;49.022;9.338;2023-08-21T03:57:31;6.93;;;5.77;;
20230;SDS011;10274;49.022;9.338;2023-08-21T03:59:57;7.10;;;6.47;;
20230;SDS011;10274;49.022;9.338;2023-08-21T04:02:24;7.97;;;6.47;;
20230;SDS011;10274;49.022;9.338;2023-08-21T04:04:51;7.60;;;6.33;;
20230;SDS011;10274;49.022;9.338;2023-08-21T04:07:18;7.17;;;6.47;;
20230;SDS011;10274;49.022;9.338;2023-08-21T04:09:44;6.50;;;5.90;;
20230;SDS011;10274;49.022;9.338;2023-08-21T04:12:11;8.57;;;5.50;;
20230;SDS011;10274;49.022;9.338;2023-08-21T04:14:39;6.10;;;5.13;;
20230;SDS011;10274;49.022;9.338;2023-08-21T04:17:06;6.63;;;5.77;;
20230;SDS011;10274;49.022;9.338;2023-08-21T04:19:33;7.30;;;6.23;;
20230;SDS011;10274;49.022;9.338;2023-08-21T04:21:59;5.80;;;5.30;;
20230;SDS011;10274;49.022;9.338;2023-08-21T04:24:26;6.30;;;5.70;;
20230;SDS011;10274;49.022;9.338;2023-08-21T04:26:53;6.10;;;5.57;;
20230;SDS011;10274;49.022;9.338;2023-08-21T04:29:19;8.37;;;6.20;;
20230;SDS011;10274;49.022;9.338;2023-08-21T04:31:47;7.90;;;5.77;;
20230;SDS011;10274;49.022;9.338;2023-08-21T04:34:14;7.60;;;6.43;;
20230;SDS011;10274;49.022;9.338;2023-08-21T04:36:43;7.30;;;6.43;;
20230;SDS011;10274;49.022;9.338;2023-08-21T04:39:09;7.60;;;6.07;;
20230;SDS011;10274;49.022;9.338;2023-08-21T04:41:36;6.80;;;6.30;;
20230;SDS011;10274;49.022;9.338;2023-08-21T04:44:03;6.33;;;5.83;;
20230;SDS011;10274;49.022;9.338;2023-08-21T04:46:30;6.47;;;5.90;;
20230;SDS011;10274;49.022;9.338;2023-08-21T04:48:58;6.83;;;5.97;;
20230;SDS011;10274;49.022;9.338;2023-08-21T04:51:25;6.20;;;5.37;;
20230;SDS011;10274;49.022;9.338;2023-08-21T04:53:51;6.80;;;6.03;;
20230;SDS011;10274;49.022;9.338;2023-08-21T04:56:18;6.80;;;6.10;;
20230;SDS011;10274;49.022;9.338;2023-08-21T04:58:45;8.17;;;5.90;;
20230;SDS011;10274;49.022;9.338;2023-08-21T05:01:11;6.67;;;5.93;;
20230;SDS011;10274;49.022;9.338;2023-08-21T05:03:38;6.73;;;6.13;;
20230;SDS011;10274;49.022;9.338;2023-08-21T05:06:06;6.20;;;5.60;;
20230;SDS011;10274;49.022;9.338;2023-08-21T05:08:33;5.90;;;5.40;;
20230;SDS011;10274;49.022;9.338;2023-08-21T05:11:00;6.73;;;6.00;;
20230;SDS011;10274;49.022;9.338;2023-08-21T05:13:27;6.93;;;5.90;;
20230;SDS011;10274;49.022;9.338;2023-08-21T05:15:54;6.23;;;5.63;;
20230;SDS011;10274;49.022;9.338;2023-08-21T05:18:23;8.20;;;6.80;;
20230;SDS011;10274;49.022;9.338;2023-08-21T05:20:50;6.80;;;6.10;;
20230;SDS011;10274;49.022;9.338;2023-08-21T05:23:21;6.33;;;5.73;;
20230;SDS011;10274;49.022;9.338;2023-08-21T05:25:48;6.27;;;5.63;;
20230;SDS011;10274;49.022;9.338;2023-08-21T05:28:15;7.53;;;6.20;;
20230;SDS011;10274;49.022;9.338;2023-08-21T05:30:42;7.77;;;5.43;;
20230;SDS011;10274;49.022;9.338;2023-08-21T05:33:08;6.23;;;5.63;;
20230;SDS011;10274;49.022;9.338;2023-08-21T05:35:35;7.67;;;5.90;;
20230;SDS011;10274;49.022;9.338;2023-08-21T05:38:03;6.97;;;6.30;;
20230;SDS011;10274;49.022;9.338;2023-08-21T05:40:31;7.40;;;6.70;;
20230;SDS011;10274;49.022;9.338;2023-08-21T05:42:58;7.37;;;6.67;;
20230;SDS011;10274;49.022;9.338;2023-08-21T05:45:24;7.27;;;6.60;;
20230;SDS011;10274;49.022;9.338;2023-08-21T05:47:51;8.43;;;7.17;;
20230;SDS011;10274;49.022;9.338;2023-08-21T05:50:18;8.23;;;7.43;;
20230;SDS011;10274;49.022;9.338;2023-08-21T05:52:45;7.63;;;6.93;;
20230;SDS011;10274;49.022;9.338;2023-08-21T05:55:11;7.43;;;6.83;;
20230;SDS011;10274;49.022;9.338;2023-08-21T05:57:39;7.90;;;7.10;;
20230;SDS011;10274;49.022;9.338;2023-08-21T06:00:06;7.67;;;7.03;;
20230;SDS011;10274;49.022;9.338;2023-08-21T06:02:34;7.43;;;6.73;;
20230;SDS011;10274;49.022;9.338;2023-08-21T06:05:01;8.03;;;7.23;;
20230;SDS011;10274;49.022;9.338;2023-08-21T06:07:28;9.50;;;7.60;;
20230;SDS011;10274;49.022;9.338;2023-08-21T06:09:55;8.23;;;7.30;;
20230;SDS011;10274;49.022;9.338;2023-08-21T06:12:21;8.90;;;8.03;;
20230;SDS011;10274;49.022;9.338;2023-08-21T06:14:49;11.03;;;7.83;;
20230;SDS011;10274;49.022;9.338;2023-08-21T06:17:17;12.37;;;7.70;;
20230;SDS011;10274;49.022;9.338;2023-08-21T06:19:43;9.40;;;7.60;;
20230;SDS011;10274;49.022;9.338;2023-08-21T06:22:10;8.03;;;7.20;;
20230;SDS011;10274;49.022;9.338;2023-08-21T06:24:37;8.57;;;7.77;;
20230;SDS011;10274;49.022;9.338;2023-08-21T06:27:04;8.40;;;7.37;;
20230;SDS011;10274;49.022;9.338;2023-08-21T06:29:30;9.73;;;6.80;;
20230;SDS011;10274;49.022;9.338;2023-08-21T06:31:59;8.77;;;7.07;;
20230;SDS011;10274;49.022;9.338;2023-08-21T06:34:25;8.40;;;7.33;;
20230;SDS011;10274;49.022;9.338;2023-08-21T06:36:52;9.03;;;7.20;;
20230;SDS011;10274;49.022;9.338;2023-08-21T06:39:19;8.63;;;7.37;;
20230;SDS011;10274;49.022;9.338;2023-08-21T06:41:45;8.10;;;7.03;;
20230;SDS011;10274;49.022;9.338;2023-08-21T06:44:12;7.77;;;6.87;;
20230;SDS011;10274;49.022;9.338;2023-08-21T06:46:39;8.67;;;7.50;;
20230;SDS011;10274;49.022;9.338;2023-08-21T06:49:07;8.43;;;7.60;;
20230;SDS011;10274;49.022;9.338;2023-08-21T06:51:34;8.23;;;7.17;;
20230;SDS011;10274;49.022;9.338;2023-08-21T06:54:00;8.82;;;7.38;;
20230;SDS011;10274;49.022;9.338;2023-08-21T06:56:27;11.82;;;7.00;;
20230;SDS011;10274;49.022;9.338;2023-08-21T06:58:54;10.23;;;7.50;;
20230;SDS011;10274;49.022;9.338;2023-08-21T07:01:21;8.57;;;7.77;;
20230;SDS011;10274;49.022;9.338;2023-08-21T07:03:48;10.25;;;8.57;;
20230;SDS011;10274;49.022;9.338;2023-08-21T07:06:16;9.15;;;7.50;;
20230;SDS011;10274;49.022;9.338;2023-08-21T07:08:42;8.73;;;6.75;;
20230;SDS011;10274;49.022;9.338;2023-08-21T07:11:09;7.90;;;6.47;;
20230;SDS011;10274;49.022;9.338;2023-08-21T07:13:37;9.50;;;6.72;;
20230;SDS011;10274;49.022;9.338;2023-08-21T07:16:04;10.18;;;7.63;;
20230;SDS011;10274;49.022;9.338;2023-08-21T07:18:31;8.90;;;7.38;;
20230;SDS011;10274;49.022;9.338;2023-08-21T07:20:59;8.73;;;6.93;;
20230;SDS011;10274;49.022;9.338;2023-08-21T07:23:27;8.25;;;6.63;;
20230;SDS011;10274;49.022;9.338;2023-08-21T07:25:54;9.77;;;7.03;;
20230;SDS011;10274;49.022;9.338;2023-08-21T07:28:21;11.07;;;7.70;;
20230;SDS011;10274;49.022;9.338;2023-08-21T07:30:47;11.00;;;6.68;;
20230;SDS011;10274;49.022;9.338;2023-08-21T07:33:20;8.20;;;6.50;;
20230;SDS011;10274;49.022;9.338;2023-08-21T07:35:46;8.10;;;7.30;;
20230;SDS011;10274;49.022;9.338;2023-08-21T07:38:13;7.43;;;6.15;;
20230;SDS011;10274;49.022;9.338;2023-08-21T07:40:41;9.88;;;7.10;;
20230;SDS011;10274;49.022;9.338;2023-08-21T07:43:08;7.10;;;5.97;;
20230;SDS011;10274;49.022;9.338;2023-08-21T07:45:36;6.93;;;6.32;;
20230;SDS011;10274;49.022;9.338;2023-08-21T07:48:03;8.18;;;7.30;;
20230;SDS011;10274;49.022;9.338;2023-08-21T07:50:31;7.00;;;6.30;;
20230;SDS011;10274;49.022;9.338;2023-08-21T07:52:57;7.38;;;6.68;;
20230;SDS011;10274;49.022;9.338;2023-08-21T07:55:24;7.32;;;6.60;;
20230;SDS011;10274;49.022;9.338;2023-08-21T07:57:52;8.70;;;7.13;;
20230;SDS011;10274;49.022;9.338;2023-08-21T08:00:19;9.40;;;7.20;;
20230;SDS011;10274;49.022;9.338;2023-08-21T08:02:46;8.75;;;6.05;;
20230;SDS011;10274;49.022;9.338;2023-08-21T08:05:12;8.38;;;6.50;;
20230;SDS011;10274;49.022;9.338;2023-08-21T08:07:39;6.85;;;6.13;;
20230;SDS011;10274;49.022;9.338;2023-08-21T08:10:06;7.75;;;6.95;;
20230;SDS011;10274;49.022;9.338;2023-08-21T08:12:33;9.13;;;6.63;;
20230;SDS011;10274;49.022;9.338;2023-08-21T08:15:01;7.55;;;6.22;;
20230;SDS011;10274;49.022;9.338;2023-08-21T08:17:28;7.88;;;6.05;;
20230;SDS011;10274;49.022;9.338;2023-08-21T08:19:55;7.03;;;6.32;;
20230;SDS011;10274;49.022;9.338;2023-08-21T08:22:21;8.18;;;7.30;;
20230;SDS011;10274;49.022;9.338;2023-08-21T08:24:48;7.68;;;6.28;;
20230;SDS011;10274;49.022;9.338;2023-08-21T08:27:15;6.80;;;6.10;;
20230;SDS011;10274;49.022;9.338;2023-08-21T08:29:41;11.10;;;6.63;;
20230;SDS011;10274;49.022;9.338;2023-08-21T08:32:09;7.68;;;6.78;;
20230;SDS011;10274;49.022;9.338;2023-08-21T08:34:36;6.93;;;6.22;;
20230;SDS011;10274;49.022;9.338;2023-08-21T08:37:03;7.68;;;6.22;;
20230;SDS011;10274;49.022;9.338;2023-08-21T08:39:30;6.40;;;5.72;;
20230;SDS011;10274;49.022;9.338;2023-08-21T08:41:58;6.35;;;5.53;;
20230;SDS011;10274;49.022;9.338;2023-08-21T08:44:28;8.18;;;6.20;;
20230;SDS011;10274;49.022;9.338;2023-08-21T08:46:56;6.25;;;5.75;;
20230;SDS011;10274;49.022;9.338;2023-08-21T08:49:25;7.72;;;5.75;;
20230;SDS011;10274;49.022;9.338;2023-08-21T08:51:51;6.03;;;5.00;;
20230;SDS011;10274;49.022;9.338;2023-08-21T08:54:20;7.65;;;4.68;;
20230;SDS011;10274;49.022;9.338;2023-08-21T08:56:48;5.53;;;5.03;;
20230;SDS011;10274;49.022;9.338;2023-08-21T08:59:15;6.68;;;5.13;;
20230;SDS011;10274;49.022;9.338;2023-08-21T09:01:41;5.07;;;4.53;;
20230;SDS011;10274;49.022;9.338;2023-08-21T09:04:08;5.90;;;5.10;;
20230;SDS011;10274;49.022;9.338;2023-08-21T09:06:37;6.80;;;5.80;;
20230;SDS011;10274;49.022;9.338;2023-08-21T09:09:04;5.13;;;4.68;;
20230;SDS011;10274;49.022;9.338;2023-08-21T09:11:33;7.15;;;5.18;;
20230;SDS011;10274;49.022;9.338;2023-08-21T09:14:00;6.00;;;5.18;;
20230;SDS011;10274;49.022;9.338;2023-08-21T09:16:27;7.10;;;4.88;;
20230;SDS011;10274;49.022;9.338;2023-08-21T09:18:54;5.32;;;4.85;;
20230;SDS011;10274;49.022;9.338;2023-08-21T09:21:22;5.38;;;4.63;;
20230;SDS011;10274;49.022;9.338;2023-08-21T09:23:55;5.10;;;4.60;;
20230;SDS011;10274;49.022;9.338;2023-08-21T09:26:24;5.20;;;4.55;;
20230;SDS011;10274;49.022;9.338;2023-08-21T09:28:52;6.05;;;4.32;;
20230;SDS011;10274;49.022;9.338;2023-08-21T09:31:21;6.25;;;3.92;;
20230;SDS011;10274;49.022;9.338;2023-08-21T09:33:54;5.85;;;4.25;;
20230;SDS011;10274;49.022;9.338;2023-08-21T09:36:22;4.80;;;4.40;;
20230;SDS011;10274;49.022;9.338;2023-08-21T09:38:50;4.53;;;4.13;;
20230;SDS011;10274;49.022;9.338;2023-08-21T09:41:20;6.57;;;4.32;;
20230;SDS011;10274;49.022;9.338;2023-08-21T09:43:47;4.60;;;4.20;;
20230;SDS011;10274;49.022;9.338;2023-08-21T09:46:14;4.55;;;4.15;;
20230;SDS011;10274;49.022;9.338;2023-08-21T09:48:42;4.90;;;4.20;;
20230;SDS011;10274;49.022;9.338;2023-08-21T09:51:10;5.05;;;4.40;;
20230;SDS011;10274;49.022;9.338;2023-08-21T09:53:37;7.53;;;4.03;;
20230;SDS011;10274;49.022;9.338;2023-08-21T09:56:05;5.15;;;4.40;;
20230;SDS011;10274;49.022;9.338;2023-08-21T09:58:34;5.90;;;3.47;;
20230;SDS011;10274;49.022;9.338;2023-08-21T10:01:01;3.88;;;3.50;;
20230;SDS011;10274;49.022;9.338;2023-08-21T10:03:36;4.00;;;3.47;;
20230;SDS011;10274;49.022;9.338;2023-08-21T10:06:04;4.07;;;3.38;;
20230;SDS011;10274;49.022;9.338;2023-08-21T10:08:32;3.80;;;3.20;;
20230;SDS011;10274;49.022;9.338;2023-08-21T10:11:04;5.55;;;3.10;;
20230;SDS011;10274;49.022;9.338;2023-08-21T10:13:31;3.55;;;3.15;;
20230;SDS011;10274;49.022;9.338;2023-08-21T10:16:00;3.33;;;2.97;;
20230;SDS011;10274;49.022;9.338;2023-08-21T10:18:29;4.28;;;2.80;;
20230;SDS011;10274;49.022;9.338;2023-08-21T10:21:03;5.82;;;2.50;;
20230;SDS011;10274;49.022;9.338;2023-08-21T10:23:37;2.90;;;2.70;;
20230;SDS011;10274;49.022;9.338;2023-08-21T10:26:05;5.90;;;3.05;;
20230;SDS011;10274;49.022;9.338;2023-08-21T16:39:54;5.53;;;4.55;;
20230;SDS011;10274;49.022;9.338;2023-08-21T16:42:20;4.93;;;4.32;;
20230;SDS011;10274;49.022;9.338;2023-08-21T16:44:48;7.65;;;4.22;;
20230;SDS011;10274;49.022;9.338;2023-08-21T16:47:16;6.28;;;4.20;;
20230;SDS011;10274;49.022;9.338;2023-08-21T16:49:42;5.57;;;4.20;;
20230;SDS011;10274;49.022;9.338;2023-08-21T16:52:09;5.50;;;4.40;;
20230;SDS011;10274;49.022;9.338;2023-08-21T16:54:36;4.88;;;4.30;;
20230;SDS011;10274;49.022;9.338;2023-08-21T16:57:02;4.32;;;3.92;;
20230;SDS011;10274;49.022;9.338;2023-08-21T16:59:29;6.13;;;4.00;;
20230;SDS011;10274;49.022;9.338;2023-08-21T17:01:56;5.53;;;4.22;;
20230;SDS011;10274;49.022;9.338;2023-08-21T17:04:25;7.18;;;4.13;;
20230;SDS011;10274;49.022;9.338;2023-08-21T17:06:51;4.32;;;3.90;;
20230;SDS011;10274;49.022;9.338;2023-08-21T17:09:18;7.28;;;4.15;;
20230;SDS011;10274;49.022;9.338;2023-08-21T17:11:45;6.53;;;4.03;;
20230;SDS011;10274;49.022;9.338;2023-08-21T17:14:11;4.45;;;4.05;;
20230;SDS011;10274;49.022;9.338;2023-08-21T17:16:38;6.97;;;4.47;;
20230;SDS011;10274;49.022;9.338;2023-08-21T17:19:05;5.85;;;4.20;;
20230;SDS011;10274;49.022;9.338;2023-08-21T17:21:33;4.88;;;3.80;;
20230;SDS011;10274;49.022;9.338;2023-08-21T17:24:00;6.40;;;4.07;;
20230;SDS011;10274;49.022;9.338;2023-08-21T17:26:27;7.40;;;4.22;;
20230;SDS011;10274;49.022;9.338;2023-08-21T17:28:53;6.07;;;4.18;;
20230;SDS011;10274;49.022;9.338;2023-08-21T17:31:20;5.65;;;4.00;;
20230;SDS011;10274;49.022;9.338;2023-08-21T17:33:47;4.93;;;4.43;;
20230;SDS011;10274;49.022;9.338;2023-08-21T17:36:14;5.00;;;4.28;;
20230;SDS011;10274;49.022;9.338;2023-08-21T17:38:42;4.50;;;4.03;;
20230;SDS011;10274;49.022;9.338;2023-08-21T17:41:08;4.60;;;4.10;;
20230;SDS011;10274;49.022;9.338;2023-08-21T17:43:35;5.03;;;4.20;;
20230;SDS011;10274;49.022;9.338;2023-08-21T17:46:02;6.10;;;4.47;;
20230;SDS011;10274;49.022;9.338;2023-08-21T17:48:29;4.82;;;3.90;;
20230;SDS011;10274;49.022;9.338;2023-08-21T17:50:56;5.97;;;3.85;;
20230;SDS011;10274;49.022;9.338;2023-08-21T17:53:24;5.53;;;4.55;;
20230;SDS011;10274;49.022;9.338;2023-08-21T17:55:52;5.20;;;4.07;;
20230;SDS011;10274;49.022;9.338;2023-08-21T17:58:19;6.05;;;4.07;;
20230;SDS011;10274;49.022;9.338;2023-08-21T18:00:45;5.50;;;4.45;;
20230;SDS011;10274;49.022;9.338;2023-08-21T18:03:12;5.10;;;4.70;;
20230;SDS011;10274;49.022;9.338;2023-08-21T18:05:39;5.90;;;4.05;;
20230;SDS011;10274;49.022;9.338;2023-08-21T18:08:06;4.78;;;4.30;;
20230;SDS011;10274;49.022;9.338;2023-08-21T18:10:32;6.57;;;4.30;;
20230;SDS011;10274;49.022;9.338;2023-08-21T18:13:01;4.47;;;4.05;;
20230;SDS011;10274;49.022;9.338;2023-08-21T18:15:29;5.32;;;4.45;;
20230;SDS011;10274;49.022;9.338;2023-08-21T18:17:59;5.70;;;4.80;;
20230;SDS011;10274;49.022;9.338;2023-08-21T18:20:44;4.68;;;4.13;;
20230;SDS011;10274;49.022;9.338;2023-08-21T18:23:13;6.32;;;4.50;;
20230;SDS011;10274;49.022;9.338;2023-08-21T18:25:39;6.30;;;4.40;;
20230;SDS011;10274;49.022;9.338;2023-08-21T18:28:07;6.88;;;4.78;;
20230;SDS011;10274;49.022;9.338;2023-08-21T18:30:34;5.57;;;4.28;;
20230;SDS011;10274;49.022;9.338;2023-08-21T18:33:02;5.85;;;4.32;;
20230;SDS011;10274;49.022;9.338;2023-08-21T18:35:29;5.38;;;4.20;;
20230;SDS011;10274;49.022;9.338;2023-08-21T18:37:55;6.22;;;4.13;;
20230;SDS011;10274;49.022;9.338;2023-08-21T18:40:22;6.68;;;4.30;;
20230;SDS011;10274;49.022;9.338;2023-08-21T18:42:49;6.57;;;4.53;;
20230;SDS011;10274;49.022;9.338;2023-08-21T18:45:17;7.90;;;4.50;;
20230;SDS011;10274;49.022;9.338;2023-08-21T18:47:44;8.98;;;4.82;;
20230;SDS011;10274;49.022;9.338;2023-08-21T18:50:11;5.95;;;4.60;;
20230;SDS011;10274;49.022;9.338;2023-08-21T18:52:37;5.05;;;4.47;;
20230;SDS011;10274;49.022;9.338;2023-08-21T18:55:05;5.93;;;5.00;;
20230;SDS011;10274;49.022;9.338;2023-08-21T18:57:32;4.72;;;4.30;;
20230;SDS011;10274;49.022;9.338;2023-08-21T18:59:59;4.38;;;3.97;;
20230;SDS011;10274;49.022;9.338;2023-08-21T19:02:27;5.78;;;5.18;;
20230;SDS011;10274;49.022;9.338;2023-08-21T19:04:53;4.90;;;4.40;;
20230;SDS011;10274;49.022;9.338;2023-08-21T19:07:20;4.63;;;4.22;;
20230;SDS011;10274;49.022;9.338;2023-08-21T19:09:47;7.07;;;5.03;;
20230;SDS011;10274;49.022;9.338;2023-08-21T19:12:14;5.05;;;4.38;;
20230;SDS011;10274;49.022;9.338;2023-08-21T19:14:40;5.78;;;4.45;;
20230;SDS011;10274;49.022;9.338;2023-08-21T19:17:07;6.20;;;4.70;;
20230;SDS011;10274;49.022;9.338;2023-08-21T19:19:35;4.82;;;4.43;;
20230;SDS011;10274;49.022;9.338;2023-08-21T19:22:02;4.88;;;4.47;;
20230;SDS011;10274;49.022;9.338;2023-08-21T19:24:29;4.65;;;4.25;;
20230;SDS011;10274;49.022;9.338;2023-08-21T19:26:56;6.70;;;4.68;;
20230;SDS011;10274;49.022;9.338;2023-08-21T19:29:22;5.82;;;5.22;;
20230;SDS011;10274;49.022;9.338;2023-08-21T19:31:49;4.35;;;3.95;;
20230;SDS011;10274;49.022;9.338;2023-08-21T19:34:16;5.28;;;4.78;;
20230;SDS011;10274;49.022;9.338;2023-08-21T19:36:47;4.90;;;4.43;;
20230;SDS011;10274;49.022;9.338;2023-08-21T19:39:14;4.95;;;4.45;;
20230;SDS011;10274;49.022;9.338;2023-08-21T19:41:41;5.07;;;4.15;;
20230;SDS011;10274;49.022;9.338;2023-08-21T19:44:08;7.25;;;4.97;;
20230;SDS011;10274;49.022;9.338;2023-08-21T19:46:34;5.47;;;4.32;;
20230;SDS011;10274;49.022;9.338;2023-08-21T19:49:01;9.55;;;4.50;;
20230;SDS011;10274;49.022;9.338;2023-08-21T19:51:28;5.13;;;4.45;;
20230;SDS011;10274;49.022;9.338;2023-08-21T19:53:56;5.13;;;4.63;;
20230;SDS011;10274;49.022;9.338;2023-08-21T19:56:24;5.30;;;4.80;;
20230;SDS011;10274;49.022;9.338;2023-08-21T19:58:52;6.87;;;4.70;;
20230;SDS011;10274;49.022;9.338;2023-08-21T20:01:18;5.67;;;4.93;;
20230;SDS011;10274;49.022;9.338;2023-08-21T20:03:45;5.37;;;4.27;;
20230;SDS011;10274;49.022;9.338;2023-08-21T20:06:12;5.75;;;4.70;;
20230;SDS011;10274;49.022;9.338;2023-08-21T20:08:40;4.80;;;4.25;;
20230;SDS011;10274;49.022;9.338;2023-08-21T20:11:08;6.13;;;4.80;;
20230;SDS011;10274;49.022;9.338;2023-08-21T20:13:35;5.00;;;4.47;;
20230;SDS011;10274;49.022;9.338;2023-08-21T20:16:02;5.07;;;4.30;;
20230;SDS011;10274;49.022;9.338;2023-08-21T20:18:32;6.73;;;4.60;;
20230;SDS011;10274;49.022;9.338;2023-08-21T20:20:59;5.63;;;4.67;;
20230;SDS011;10274;49.022;9.338;2023-08-21T20:23:26;6.23;;;4.93;;
20230;SDS011;10274;49.022;9.338;2023-08-21T20:25:52;5.93;;;4.87;;
20230;SDS011;10274;49.022;9.338;2023-08-21T20:28:21;5.47;;;4.65;;
20230;SDS011;10274;49.022;9.338;2023-08-21T20:30:49;5.05;;;4.65;;
20230;SDS011;10274;49.022;9.338;2023-08-21T20:33:16;5.82;;;4.75;;
20230;SDS011;10274;49.022;9.338;2023-08-21T20:35:44;5.03;;;4.50;;
20230;SDS011;10274;49.022;9.338;2023-08-21T20:38:11;5.97;;;4.90;;
20230;SDS011;10274;49.022;9.338;2023-08-21T20:40:38;4.85;;;4.32;;
20230;SDS011;10274;49.022;9.338;2023-08-21T20:43:04;5.03;;;4.07;;
20230;SDS011;10274;49.022;9.338;2023-08-21T20:45:32;6.07;;;4.70;;
20230;SDS011;10274;49.022;9.338;2023-08-21T20:47:59;5.70;;;4.27;;
20230;SDS011;10274;49.022;9.338;2023-08-21T20:50:26;4.93;;;4.30;;
20230;SDS011;10274;49.022;9.338;2023-08-21T20:52:53;4.90;;;4.20;;
20230;SDS011;10274;49.022;9.338;2023-08-21T20:55:19;5.73;;;4.60;;
20230;SDS011;10274;49.022;9.338;2023-08-21T20:57:46;5.60;;;4.70;;
20230;SDS011;10274;49.022;9.338;2023-08-21T21:00:13;6.97;;;4.67;;